createdAt,value
2023-03-11T00:00:55.186Z,4.67
2023-03-11T00:03:22.743Z,4.63
2023-03-11T00:05:51.156Z,4.59
2023-03-11T00:08:21.865Z,4.61
2023-03-11T00:10:54.656Z,4.67
2023-03-11T00:13:22.345Z,4.68
2023-03-11T00:15:52.535Z,4.64
2023-03-11T00:18:19.541Z,4.68
2023-03-11T00:20:47.871Z,4.72
2023-03-11T00:23:16.023Z,4.64
2023-03-11T00:25:45.192Z,4.55
2023-03-11T00:28:16.059Z,4.47
2023-03-11T00:30:45.413Z,4.35
2023-03-11T00:33:13.655Z,4.33
2023-03-11T00:35:42.251Z,4.24
2023-03-11T00:38:14.366Z,4.23
2023-03-11T00:40:41.888Z,4.12
2023-03-11T00:43:08.865Z,4.05
2023-03-11T00:45:38.008Z,4.01
2023-03-11T00:48:06.236Z,3.84
2023-03-11T00:50:36.450Z,3.87
2023-03-11T00:53:05.469Z,3.82
2023-03-11T00:55:35.136Z,3.79
2023-03-11T00:58:07.174Z,3.72
2023-03-11T01:00:45.438Z,3.66
2023-03-11T01:03:12.552Z,3.59
2023-03-11T01:05:39.603Z,3.58
2023-03-11T01:08:06.557Z,3.50
2023-03-11T01:10:35.408Z,3.39
2023-03-11T01:13:02.957Z,3.44
2023-03-11T01:15:32.853Z,3.35
2023-03-11T01:18:01.466Z,3.27
2023-03-11T01:20:28.518Z,3.28
2023-03-11T01:22:55.578Z,3.23
2023-03-11T01:25:24.465Z,3.14
2023-03-11T01:27:51.556Z,3.11
2023-03-11T01:30:20.252Z,3.05
2023-03-11T01:32:47.693Z,2.99
2023-03-11T01:35:19.751Z,3.00
2023-03-11T01:37:47.110Z,3.02
2023-03-11T01:40:21.406Z,3.03
2023-03-11T01:42:48.631Z,3.02
2023-03-11T01:45:41.721Z,3.00
2023-03-11T01:48:11.186Z,2.91
2023-03-11T01:50:44.929Z,2.89
2023-03-11T01:53:15.398Z,2.84
2023-03-11T01:55:44.051Z,2.86
2023-03-11T01:58:17.420Z,2.89
2023-03-11T02:00:45.637Z,2.89
2023-03-11T02:03:23.321Z,2.90
2023-03-11T02:05:55.964Z,2.79
2023-03-11T02:08:23.532Z,2.81
2023-03-11T02:10:53.751Z,2.81
2023-03-11T02:13:21.227Z,2.80
2023-03-11T02:15:48.378Z,2.77
2023-03-11T02:18:18.128Z,2.75
2023-03-11T02:20:54.469Z,2.71
2023-03-11T02:23:28.709Z,2.74
2023-03-11T02:26:07.410Z,2.67
2023-03-11T02:28:38.740Z,2.68
2023-03-11T02:31:05.732Z,2.58
2023-03-11T02:33:37.136Z,2.58
2023-03-11T02:36:05.399Z,2.54
2023-03-11T02:38:32.260Z,2.50
2023-03-11T02:41:02.027Z,2.53
2023-03-11T02:43:40.633Z,2.46
2023-03-11T02:46:11.392Z,2.46
2023-03-11T02:48:39.314Z,2.47
2023-03-11T02:51:06.670Z,2.43
2023-03-11T02:53:42.478Z,2.39
2023-03-11T02:56:09.338Z,2.41
2023-03-11T02:58:37.960Z,2.35
2023-03-11T03:01:05.159Z,2.33
2023-03-11T03:03:32.103Z,2.38
2023-03-11T03:05:59.241Z,2.37
2023-03-11T03:08:26.786Z,2.39
2023-03-11T03:10:53.944Z,2.42
2023-03-11T03:13:20.864Z,2.47
2023-03-11T03:15:49.438Z,2.49
2023-03-11T03:18:16.203Z,2.55
2023-03-11T03:20:43.746Z,2.59
2023-03-11T03:23:10.652Z,2.65
2023-03-11T03:25:37.540Z,2.72
2023-03-11T03:28:07.607Z,2.76
2023-03-11T03:30:38.851Z,2.75
2023-03-11T03:33:07.396Z,2.75
2023-03-11T03:35:34.551Z,2.72
2023-03-11T03:38:08.850Z,2.69
2023-03-11T03:40:36.135Z,2.71
2023-03-11T03:43:05.206Z,2.67
2023-03-11T03:45:33.273Z,2.67
2023-03-11T03:48:00.704Z,2.65
2023-03-11T03:50:32.473Z,2.65
2023-03-11T03:52:59.459Z,2.64
2023-03-11T03:55:27.047Z,2.57
2023-03-11T03:57:54.259Z,2.59
2023-03-11T04:00:24.875Z,2.47
2023-03-11T04:02:57.706Z,2.37
2023-03-11T04:05:34.036Z,2.35
2023-03-11T04:08:04.049Z,2.34
2023-03-11T04:10:32.258Z,2.34
2023-03-11T04:12:59.185Z,2.36
2023-03-11T04:15:26.525Z,2.36
2023-03-11T04:17:53.492Z,2.37
2023-03-11T04:20:20.459Z,2.35
2023-03-11T04:22:51.294Z,2.40
2023-03-11T04:25:19.757Z,2.39
2023-03-11T04:27:47.046Z,2.39
2023-03-11T04:30:14.466Z,2.40
2023-03-11T04:32:43.758Z,2.38
2023-03-11T04:35:11.205Z,2.38
2023-03-11T04:37:38.427Z,2.37
2023-03-11T04:40:09.621Z,2.37
2023-03-11T04:42:36.642Z,2.35
2023-03-11T04:45:04.072Z,2.26
2023-03-11T04:47:31.655Z,2.24
2023-03-11T04:49:58.856Z,2.23
2023-03-11T04:52:25.994Z,2.18
2023-03-11T04:54:53.319Z,2.15
2023-03-11T04:57:21.455Z,2.03
2023-03-11T04:59:48.374Z,2.01
2023-03-11T05:02:15.624Z,1.97
2023-03-11T05:04:50.841Z,1.88
2023-03-11T05:07:18.203Z,1.85
2023-03-11T05:09:45.872Z,1.76
2023-03-11T05:12:13.167Z,1.80
2023-03-11T05:14:43.422Z,1.77
2023-03-11T05:17:10.779Z,1.75
2023-03-11T05:19:37.955Z,1.77
2023-03-11T05:22:11.906Z,1.75
2023-03-11T05:24:38.985Z,1.80
2023-03-11T05:27:06.223Z,1.80
2023-03-11T05:29:35.539Z,1.81
2023-03-11T05:32:04.194Z,1.82
2023-03-11T05:34:31.719Z,1.84
2023-03-11T05:37:00.909Z,1.83
2023-03-11T05:39:29.522Z,1.79
2023-03-11T05:41:56.863Z,1.77
2023-03-11T05:44:24.536Z,1.79
2023-03-11T05:46:52.230Z,1.79
2023-03-11T05:49:20.536Z,1.83
2023-03-11T05:51:49.220Z,1.81
2023-03-11T05:54:16.807Z,1.81
2023-03-11T05:56:47.756Z,1.86
2023-03-11T05:59:17.151Z,1.91
2023-03-11T06:01:47.249Z,1.95
2023-03-11T06:04:14.735Z,1.96
2023-03-11T06:06:43.407Z,1.98
2023-03-11T06:09:13.671Z,2.01
2023-03-11T06:11:42.604Z,2.08
2023-03-11T06:14:12.352Z,2.11
2023-03-11T06:16:39.969Z,2.20
2023-03-11T06:19:09.318Z,2.18
2023-03-11T06:21:41.192Z,2.21
2023-03-11T06:24:09.751Z,2.29
2023-03-11T06:26:37.302Z,2.41
2023-03-11T06:29:04.674Z,2.50
2023-03-11T06:31:32.245Z,2.59
2023-03-11T06:34:05.286Z,2.73
2023-03-11T06:36:33.109Z,2.87
2023-03-11T06:39:02.189Z,3.51
2023-03-11T06:41:34.062Z,3.81
2023-03-11T06:44:04.864Z,3.68
2023-03-11T06:46:32.908Z,3.77
2023-03-11T06:48:59.923Z,3.77
2023-03-11T06:51:27.937Z,3.80
2023-03-11T06:53:54.863Z,3.73
2023-03-11T06:56:24.465Z,3.60
2023-03-11T06:58:57.988Z,3.55
2023-03-11T07:01:28.770Z,3.45
2023-03-11T07:03:57.601Z,4.09
2023-03-11T07:06:52.922Z,4.90
2023-03-11T07:09:28.195Z,4.92
2023-03-11T07:11:56.552Z,6.68
2023-03-11T07:14:39.798Z,8.66
2023-03-11T07:17:06.833Z,9.53
2023-03-11T07:19:38.739Z,10.03
2023-03-11T07:22:05.710Z,10.89
2023-03-11T07:24:32.556Z,11.41
2023-03-11T07:26:59.667Z,12.26
2023-03-11T07:29:26.636Z,12.83
2023-03-11T07:31:54.924Z,12.57
2023-03-11T07:34:21.718Z,12.69
2023-03-11T07:36:48.656Z,13.54
2023-03-11T07:39:18.898Z,13.72
2023-03-11T07:41:46.143Z,14.14
2023-03-11T07:44:16.019Z,12.34
2023-03-11T07:46:44.218Z,11.20
2023-03-11T07:49:13.028Z,10.23
2023-03-11T07:51:40.194Z,8.89
2023-03-11T07:54:07.221Z,8.34
2023-03-11T07:56:35.625Z,8.29
2023-03-11T07:59:05.395Z,8.96
2023-03-11T08:01:33.661Z,9.95
2023-03-11T08:04:00.683Z,11.59
2023-03-11T08:06:32.707Z,12.86
2023-03-11T08:09:03.439Z,12.17
2023-03-11T08:11:31.070Z,11.47
2023-03-11T08:13:58.601Z,10.34
2023-03-11T08:16:26.158Z,10.00
2023-03-11T08:18:54.167Z,11.17
2023-03-11T08:21:24.210Z,11.42
2023-03-11T08:23:59.359Z,11.24
2023-03-11T08:26:30.880Z,11.20
2023-03-11T08:29:01.332Z,10.92
2023-03-11T08:31:34.854Z,11.31
2023-03-11T08:34:04.744Z,11.78
2023-03-11T08:36:32.720Z,11.35
2023-03-11T08:39:03.720Z,11.96
2023-03-11T08:41:31.923Z,12.74
2023-03-11T08:43:59.247Z,13.54
2023-03-11T08:46:30.041Z,13.90
2023-03-11T08:49:01.064Z,12.93
2023-03-11T08:51:30.512Z,11.61
2023-03-11T08:54:18.520Z,11.24
2023-03-11T08:56:45.443Z,11.70
2023-03-11T08:59:14.913Z,11.35
2023-03-11T09:01:44.563Z,11.29
2023-03-11T09:04:11.362Z,12.22
2023-03-11T09:06:42.319Z,12.15
2023-03-11T09:09:11.234Z,11.08
2023-03-11T09:11:39.824Z,10.53
2023-03-11T09:14:06.736Z,9.81
2023-03-11T09:16:34.267Z,9.39
2023-03-11T09:19:01.149Z,9.13
2023-03-11T09:21:28.328Z,9.02
2023-03-11T09:23:55.247Z,9.78
2023-03-11T09:26:22.545Z,10.72
2023-03-11T09:28:53.179Z,11.25
2023-03-11T09:31:20.388Z,11.61
2023-03-11T09:33:48.064Z,12.28
2023-03-11T09:36:18.657Z,12.90
2023-03-11T09:38:46.280Z,12.23
2023-03-11T09:41:28.207Z,11.62
2023-03-11T09:44:18.209Z,10.91
2023-03-11T09:47:20.502Z,10.88
2023-03-11T09:50:08.439Z,11.71
2023-03-11T09:52:44.714Z,11.56
2023-03-11T09:55:33.543Z,10.44
2023-03-11T09:58:08.793Z,9.38
2023-03-11T10:00:41.353Z,10.67
2023-03-11T10:03:25.706Z,12.42
2023-03-11T10:06:04.443Z,13.35
2023-03-11T10:08:42.455Z,14.40
2023-03-11T10:11:27.630Z,13.78
2023-03-11T10:14:13.012Z,12.81
2023-03-11T10:16:55.217Z,13.68
2023-03-11T10:19:40.390Z,14.05
2023-03-11T10:22:21.454Z,12.98
2023-03-11T10:25:04.466Z,12.24
2023-03-11T10:27:42.016Z,11.69
2023-03-11T10:30:23.289Z,10.84
2023-03-11T10:32:58.264Z,11.56
2023-03-11T10:35:37.374Z,13.08
2023-03-11T10:38:15.420Z,14.68
2023-03-11T10:40:45.393Z,13.99
2023-03-11T10:43:22.829Z,12.33
2023-03-11T10:45:53.975Z,11.89
2023-03-11T10:48:25.091Z,11.32
2023-03-11T10:51:01.296Z,11.04
2023-03-11T10:53:29.806Z,10.71
2023-03-11T10:55:59.669Z,10.53
2023-03-11T10:58:29.575Z,11.12
2023-03-11T11:01:15.997Z,12.63
2023-03-11T11:03:48.681Z,14.22
2023-03-11T11:06:27.081Z,14.79
2023-03-11T11:09:17.428Z,14.71
2023-03-11T11:12:02.661Z,12.83
2023-03-11T11:14:52.930Z,12.07
2023-03-11T11:17:31.038Z,11.82
2023-03-11T11:20:02.320Z,11.96
2023-03-11T11:22:29.226Z,13.22
2023-03-11T11:24:56.591Z,14.71
2023-03-11T11:27:26.522Z,15.34
2023-03-11T11:30:15.590Z,16.09
2023-03-11T11:32:42.989Z,14.61
2023-03-11T11:35:15.365Z,13.59
2023-03-11T11:37:47.277Z,13.03
2023-03-11T11:40:27.572Z,12.33
2023-03-11T11:42:59.389Z,11.89
2023-03-11T11:45:36.531Z,11.51
2023-03-11T11:48:17.759Z,11.15
2023-03-11T11:50:54.582Z,11.31
2023-03-11T11:53:35.526Z,13.19
2023-03-11T11:56:03.037Z,12.69
2023-03-11T11:58:31.412Z,11.72
2023-03-11T12:01:16.589Z,10.94
2023-03-11T12:04:25.849Z,10.61
2023-03-11T12:07:24.835Z,10.84
2023-03-11T12:10:22.785Z,10.77
2023-03-11T12:13:41.199Z,10.72
2023-03-11T12:16:23.696Z,10.78
2023-03-11T12:19:12.977Z,10.38
2023-03-11T12:22:20.917Z,10.28
2023-03-11T12:25:25.406Z,10.48
2023-03-11T12:28:00.035Z,10.63
2023-03-11T12:30:33.794Z,10.44
2023-03-11T12:33:05.413Z,9.83
2023-03-11T12:35:35.628Z,10.00
2023-03-11T12:38:21.520Z,9.79
2023-03-11T12:41:02.217Z,9.77
2023-03-11T12:44:04.392Z,9.71
2023-03-11T12:47:21.965Z,9.51
2023-03-11T12:49:51.531Z,9.61
2023-03-11T12:52:23.081Z,9.72
2023-03-11T12:55:38.955Z,9.60
2023-03-11T12:59:14.841Z,9.62
2023-03-11T13:02:17.842Z,9.42
2023-03-11T13:04:59.033Z,9.09
2023-03-11T13:07:48.702Z,8.96
2023-03-11T13:10:40.126Z,9.25
2023-03-11T13:13:35.213Z,9.33
2023-03-11T13:16:40.844Z,9.10
2023-03-11T13:19:49.764Z,8.82
2023-03-11T13:23:13.938Z,8.97
2023-03-11T13:25:59.275Z,9.07
2023-03-11T13:28:56.871Z,9.20
2023-03-11T13:31:58.891Z,9.17
2023-03-11T13:34:42.779Z,8.90
2023-03-11T13:37:39.629Z,8.60
2023-03-11T13:40:28.367Z,8.44
2023-03-11T13:43:04.101Z,8.59
2023-03-11T13:45:37.173Z,8.62
2023-03-11T13:48:15.382Z,8.59
2023-03-11T13:50:56.617Z,8.69
2023-03-11T13:53:35.976Z,8.57
2023-03-11T13:56:18.686Z,8.35
2023-03-11T13:58:51.414Z,8.51
2023-03-11T14:01:19.516Z,8.54
2023-03-11T14:03:48.333Z,8.65
2023-03-11T14:06:20.009Z,8.77
2023-03-11T14:08:54.807Z,8.83
2023-03-11T14:11:27.605Z,8.89
2023-03-11T14:13:56.197Z,8.93
2023-03-11T14:16:30.694Z,8.99
2023-03-11T14:19:06.196Z,9.08
2023-03-11T14:21:43.417Z,9.19
2023-03-11T14:24:16.977Z,8.05
2023-03-11T14:26:45.228Z,8.37
2023-03-11T14:29:19.192Z,8.44
2023-03-11T14:31:47.782Z,8.64
2023-03-11T14:34:18.305Z,8.71
2023-03-11T14:36:48.215Z,8.89
2023-03-11T14:39:28.406Z,8.92
2023-03-11T14:42:03.921Z,8.91
2023-03-11T14:44:37.742Z,8.85
2023-03-11T14:47:16.338Z,8.70
2023-03-11T14:49:46.285Z,8.32
2023-03-11T14:52:21.193Z,8.34
2023-03-11T14:54:51.817Z,8.47
2023-03-11T14:57:29.566Z,8.52
2023-03-11T14:59:59.250Z,8.64
2023-03-11T15:02:42.978Z,8.58
2023-03-11T15:05:21.703Z,8.46
2023-03-11T15:07:57.435Z,8.45
2023-03-11T15:10:24.919Z,8.31
2023-03-11T15:13:07.392Z,8.15
2023-03-11T15:15:39.399Z,8.16
2023-03-11T15:18:22.979Z,8.08
2023-03-11T15:21:13.096Z,7.93
2023-03-11T15:23:48.727Z,8.02
2023-03-11T15:26:28.751Z,7.91
2023-03-11T15:29:13.279Z,8.03
2023-03-11T15:31:43.274Z,8.06
2023-03-11T15:34:29.918Z,8.03
2023-03-11T15:37:06.041Z,8.05
2023-03-11T15:39:49.338Z,8.06
2023-03-11T15:42:24.293Z,8.08
2023-03-11T15:45:09.425Z,8.10
2023-03-11T15:47:39.290Z,8.12
2023-03-11T15:50:24.057Z,8.11
2023-03-11T15:52:54.777Z,7.97
2023-03-11T15:55:22.732Z,7.93
2023-03-11T15:57:56.444Z,7.88
2023-03-11T16:00:24.337Z,7.85
2023-03-11T16:02:52.559Z,7.86
2023-03-11T16:05:22.391Z,7.82
2023-03-11T16:07:49.315Z,7.84
2023-03-11T16:10:19.808Z,7.84
2023-03-11T16:12:47.616Z,7.63
2023-03-11T16:15:25.101Z,7.58
2023-03-11T16:17:54.840Z,7.42
2023-03-11T16:20:25.155Z,7.41
2023-03-11T16:22:56.052Z,7.41
2023-03-11T16:25:29.246Z,7.41
2023-03-11T16:27:57.800Z,7.41
2023-03-11T16:30:29.357Z,7.38
2023-03-11T16:32:57.879Z,7.37
2023-03-11T16:35:26.097Z,7.32
2023-03-11T16:37:53.216Z,7.34
2023-03-11T16:40:22.835Z,7.32
2023-03-11T16:42:49.741Z,7.31
2023-03-11T16:45:18.237Z,7.29
2023-03-11T16:47:45.680Z,7.19
2023-03-11T16:50:13.943Z,7.14
2023-03-11T16:52:40.864Z,7.07
2023-03-11T16:55:09.355Z,7.07
2023-03-11T16:57:36.376Z,6.97
2023-03-11T17:00:05.319Z,6.95
2023-03-11T17:02:32.778Z,6.93
2023-03-11T17:04:59.629Z,6.86
2023-03-11T17:07:28.998Z,6.71
2023-03-11T17:09:57.069Z,6.68
2023-03-11T17:12:26.942Z,6.66
2023-03-11T17:15:00.905Z,6.51
2023-03-11T17:17:34.942Z,6.50
2023-03-11T17:20:03.395Z,6.44
2023-03-11T17:22:33.996Z,6.33
2023-03-11T17:25:03.396Z,6.35
2023-03-11T17:27:42.299Z,6.31
2023-03-11T17:30:36.828Z,6.25
2023-03-11T17:33:05.329Z,6.20
2023-03-11T17:35:32.495Z,6.13
2023-03-11T17:38:00.805Z,6.08
2023-03-11T17:40:28.546Z,6.00
2023-03-11T17:42:57.860Z,5.97
2023-03-11T17:45:26.831Z,5.88
2023-03-11T17:47:53.620Z,5.80
2023-03-11T17:50:20.501Z,5.73
2023-03-11T17:52:47.566Z,5.67
2023-03-11T17:55:16.085Z,5.63
2023-03-11T17:57:45.723Z,5.61
2023-03-11T18:00:14.273Z,5.55
2023-03-11T18:02:41.218Z,5.53
2023-03-11T18:05:08.852Z,5.47
2023-03-11T18:07:37.105Z,5.39
2023-03-11T18:10:05.240Z,5.37
2023-03-11T18:12:33.899Z,5.31
2023-03-11T18:15:02.981Z,5.27
2023-03-11T18:17:30.204Z,5.22
2023-03-11T18:19:58.994Z,5.11
2023-03-11T18:22:26.845Z,5.06
2023-03-11T18:24:57.159Z,4.98
2023-03-11T18:27:24.572Z,4.94
2023-03-11T18:29:52.777Z,4.91
2023-03-11T18:32:20.470Z,4.89
2023-03-11T18:34:50.108Z,4.87
2023-03-11T18:37:16.951Z,4.83
2023-03-11T18:39:45.402Z,4.77
2023-03-11T18:42:12.574Z,4.73
2023-03-11T18:44:40.139Z,4.64
2023-03-11T18:47:08.728Z,4.50
2023-03-11T18:49:35.774Z,4.24
2023-03-11T18:52:02.837Z,4.12
2023-03-11T18:54:29.683Z,4.06
2023-03-11T18:56:56.641Z,4.08
2023-03-11T18:59:23.591Z,3.79
2023-03-11T19:01:50.887Z,3.71
2023-03-11T19:04:19.150Z,3.81
2023-03-11T19:06:45.987Z,3.97
2023-03-11T19:09:12.844Z,4.08
2023-03-11T19:11:39.811Z,4.19
2023-03-11T19:14:06.591Z,4.23
2023-03-11T19:16:34.277Z,4.26
2023-03-11T19:19:01.237Z,4.18
2023-03-11T19:21:29.509Z,4.12
2023-03-11T19:23:57.765Z,4.13
2023-03-11T19:26:41.483Z,4.17
2023-03-11T19:29:11.463Z,4.23
2023-03-11T19:31:38.373Z,4.22
2023-03-11T19:34:05.432Z,4.21
2023-03-11T19:36:33.772Z,3.98
2023-03-11T19:39:00.844Z,3.71
2023-03-11T19:41:27.758Z,3.64
2023-03-11T19:43:54.722Z,3.34
2023-03-11T19:46:23.394Z,3.37
2023-03-11T19:48:50.461Z,3.27
2023-03-11T19:51:17.505Z,3.38
2023-03-11T19:53:45.986Z,3.47
2023-03-11T19:56:13.484Z,3.52
2023-03-11T19:58:42.235Z,3.50
2023-03-11T20:01:16.774Z,3.35
2023-03-11T20:03:43.597Z,3.29
2023-03-11T20:06:11.248Z,3.17
2023-03-11T20:08:38.421Z,3.10
2023-03-11T20:11:06.626Z,3.13
2023-03-11T20:13:36.044Z,3.16
2023-03-11T20:16:08.186Z,3.20
2023-03-11T20:18:35.629Z,2.98
2023-03-11T20:21:06.774Z,2.95
2023-03-11T20:23:34.619Z,3.01
2023-03-11T20:26:08.130Z,3.06
2023-03-11T20:28:35.433Z,2.95
2023-03-11T20:31:10.166Z,2.88
2023-03-11T20:33:38.035Z,2.95
2023-03-11T20:36:07.464Z,2.96
2023-03-11T20:38:34.525Z,2.92
2023-03-11T20:41:01.428Z,2.85
2023-03-11T20:43:29.718Z,2.82
2023-03-11T20:45:58.317Z,2.64
2023-03-11T20:48:27.882Z,2.68
2023-03-11T20:50:55.141Z,2.72
2023-03-11T20:53:21.978Z,2.74
2023-03-11T20:55:48.972Z,2.75
2023-03-11T20:58:15.812Z,2.75
2023-03-11T21:00:45.294Z,2.73
2023-03-11T21:03:12.602Z,2.58
2023-03-11T21:05:40.142Z,2.50
2023-03-11T21:08:07.469Z,2.43
2023-03-11T21:10:34.703Z,2.47
2023-03-11T21:13:01.670Z,2.51
2023-03-11T21:15:28.613Z,2.53
2023-03-11T21:17:56.841Z,2.54
2023-03-11T21:20:24.041Z,2.56
2023-03-11T21:22:50.918Z,2.55
2023-03-11T21:25:18.050Z,2.42
2023-03-11T21:27:45.336Z,2.13
2023-03-11T21:30:14.366Z,2.12
2023-03-11T21:32:41.648Z,2.18
2023-03-11T21:35:10.262Z,2.21
2023-03-11T21:37:37.266Z,2.23
2023-03-11T21:40:05.661Z,2.20
2023-03-11T21:42:32.416Z,1.85
2023-03-11T21:44:59.475Z,1.46
2023-03-11T21:47:28.926Z,1.27
2023-03-11T21:49:56.189Z,1.37
2023-03-11T21:52:24.468Z,1.55
2023-03-11T21:54:51.564Z,1.66
2023-03-11T21:57:18.412Z,1.77
2023-03-11T21:59:45.497Z,1.81
2023-03-11T22:02:17.057Z,1.74
2023-03-11T22:04:44.564Z,1.74
2023-03-11T22:07:11.530Z,1.79
2023-03-11T22:09:40.738Z,1.75
2023-03-11T22:12:08.279Z,1.76
2023-03-11T22:14:35.206Z,1.80
2023-03-11T22:17:02.155Z,1.78
2023-03-11T22:19:29.274Z,1.80
2023-03-11T22:21:56.355Z,1.86
2023-03-11T22:24:23.245Z,1.87
2023-03-11T22:26:52.012Z,1.67
2023-03-11T22:29:19.042Z,1.57
2023-03-11T22:31:46.053Z,1.58
2023-03-11T22:34:12.965Z,1.54
2023-03-11T22:36:39.826Z,1.61
2023-03-11T22:39:06.700Z,1.66
2023-03-11T22:41:34.346Z,1.69
2023-03-11T22:44:02.958Z,1.61
2023-03-11T22:46:29.966Z,1.56
2023-03-11T22:48:56.891Z,1.58
2023-03-11T22:51:23.761Z,1.63
2023-03-11T22:53:50.860Z,1.65
2023-03-11T22:56:19.025Z,1.68
2023-03-11T22:58:46.788Z,1.67
2023-03-11T23:01:16.975Z,1.65
2023-03-11T23:03:45.019Z,1.49
2023-03-11T23:06:18.181Z,1.46
2023-03-11T23:08:46.464Z,1.46
2023-03-11T23:11:17.449Z,1.51
2023-03-11T23:13:45.311Z,1.51
2023-03-11T23:16:16.949Z,1.53
2023-03-11T23:18:53.636Z,1.50
2023-03-11T23:21:23.439Z,1.46
2023-03-11T23:23:51.715Z,1.46
2023-03-11T23:26:49.130Z,1.40
2023-03-11T23:29:18.905Z,1.38
2023-03-11T23:32:25.209Z,1.44
2023-03-11T23:35:53.019Z,1.44
2023-03-11T23:38:56.038Z,1.25
2023-03-11T23:41:22.986Z,1.16
2023-03-11T23:43:50.399Z,1.06
2023-03-11T23:46:17.262Z,1.13
2023-03-11T23:48:45.575Z,1.17
2023-03-11T23:51:17.805Z,1.21
2023-03-11T23:54:07.767Z,1.21
2023-03-11T23:57:54.659Z,0.87
